Abbott Park, IL

9:58 PM CST on November 22, 2014 (GMT -0600)
Prairie Ridge Farm | Change Station
CLOSE
Current Station
Personal Weather Station
Location: Green Oaks, IL
Elevation: 698 ft
Nearby Weather Stations

Elev 698 ft 42.32 °N, 87.92 °W | Updated 47 seconds ago

Mostly Cloudy
Mostly Cloudy
51.3 °F
Feels Like 51.3 °F
N
8.9
Wind Variable Wind from WNW
Gusts 12.0 mph

Today
High -- | Low -- °F
--% Chance of Precip.
Yesterday
High -- | Low -- °F
Precip. -- in
6:50 AM 4:24 PM
New Moon, 0% visible
Pressure 29.83 in
Visibility 9.0 miles
Clouds Few 1500 ft
Mostly Cloudy 2300 ft
Dew Point 48 °F
Humidity 87%
Rainfall 0.05 in
Snow Depth Not available.
UV 0 out of 12
Pollen .10 out of 12
Air Quality Not available.
Flu Activity Not available.
SPECI KUGN 230321Z AUTO 21013KT 9SM FEW015 BKN023 09/07 A2983 RMK AO2 T00940072

More Conditions Fewer Conditions

Pressure 29.83 in
Visibility 9.0 miles
Clouds Few 1500 ft
Mostly Cloudy 2300 ft
Dew Point 48 °F
Humidity 87%
Rainfall 0.05 in
Snow Depth Not available.
UV 0 out of 12
Pollen .10 out of 12
Air Quality Not available.
Flu Activity Not available.
SPECI KUGN 230321Z AUTO 21013KT 9SM FEW015 BKN023 09/07 A2983 RMK AO2 T00940072

More Conditions Fewer Conditions

10-Day Weather Forecast

Almanac

Astronomy

Nov. 22, 2014 Rise Set
Actual Time
Civil Twilight
Nautical Twilight
Astronomical Twilight
Moon
Length of Visible Light
Length of Day
Tomorrow will be .
, % of the Moon is Illuminated

Today's Extremes

State Highs State Lows

Community

WunderPhotos

Upload Photos

1,772,990 photos uploaded!

WunderBlogs® & News

Nearby

Air Quality

  Air Quality AQ Index Pollutant
Not available.

Snow Depth

Station Depth Elevation

Earthquake Activity

City Distance Mag. Time & Date
Minimum magnitude displayed is 2.5.

Coastal Water Temperatures

Place Temperature

Nearby Weather Stations